Home > Products > Valid Products > TAF

000
FTUS43 KDDC 211900 AAA
TAFHYS
TAF AMD
KHYS 211919Z 2119/2218 19017G21KT P6SM SKC
     FM220300 18010KT P6SM OVC250=



000
FTUS43 KDDC 211900 AAA
TAFHYS
TAF AMD
KHYS 211919Z 2119/2218 19017G21KT P6SM SKC
     FM220300 18010KT P6SM OVC250=



000
FTUS43 KDDC 211700
TAFGCK
TAF
KGCK 211720Z 2118/2218 22011KT P6SM SCT250
     FM220300 16010KT P6SM OVC250=



000
FTUS43 KDDC 211700
TAFHYS
TAF
KHYS 211720Z 2118/2218 22011G17KT P6SM SCT200
     FM220300 18010KT P6SM OVC250=



000
FTUS43 KDDC 211700
TAFDDC
TAF
KDDC 211720Z 2118/2218 21015G21KT P6SM SCT250
     FM220300 18010KT P6SM OVC250=



000
FTUS43 KDDC 211700
TAFDDC
TAF
KDDC 211720Z 2118/2218 21015G21KT P6SM SCT250
     FM220300 18010KT P6SM OVC250=



000
FTUS43 KDDC 211700
TAFGCK
TAF
KGCK 211720Z 2118/2218 22011KT P6SM SCT250
     FM220300 16010KT P6SM OVC250=



000
FTUS43 KDDC 211700
TAFHYS
TAF
KHYS 211720Z 2118/2218 22011G17KT P6SM SCT200
     FM220300 18010KT P6SM OVC250=



000
FTUS43 KDDC 211500 AAB
TAFGCK
TAF AMD
KGCK 211510Z 2115/2212 21013KT P6SM SKC
     FM211600 20015G25KT P6SM FEW120
     FM220200 18010KT P6SM OVC250=



000
FTUS43 KDDC 211500 AAB
TAFGCK
TAF AMD
KGCK 211510Z 2115/2212 21013KT P6SM SKC
     FM211600 20015G25KT P6SM FEW120
     FM220200 18010KT P6SM OVC250=



000
FTUS43 KDDC 211300 AAA
TAFDDC
TAF AMD
KDDC 211313Z 2113/2212 19011KT P6SM SKC
     FM211500 21020G30KT P6SM SCT080
     FM220200 18010KT P6SM OVC250=



000
FTUS43 KDDC 211300 AAA
TAFDDC
TAF AMD
KDDC 211313Z 2113/2212 19011KT P6SM SKC
     FM211500 21020G30KT P6SM SCT080
     FM220200 18010KT P6SM OVC250=



000
FTUS43 KDDC 211300 AAA
TAFGCK
TAF AMD
KGCK 211313Z 2113/2212 21009KT P6SM SKC
     FM211500 21020G30KT P6SM SCT080
     FM220200 18010KT P6SM OVC250=



000
FTUS43 KDDC 211300 AAA
TAFGCK
TAF AMD
KGCK 211313Z 2113/2212 21009KT P6SM SKC
     FM211500 21020G30KT P6SM SCT080
     FM220200 18010KT P6SM OVC250=



000
FTUS43 KDDC 211200 AAA
TAFHYS
TAF AMD
KHYS 211237Z 2113/2212 21012KT P6SM BKN120
     FM211500 21017G25KT P6SM SCT080
     FM220200 18010KT P6SM OVC250=



000
FTUS43 KDDC 211200 AAA
TAFHYS
TAF AMD
KHYS 211237Z 2113/2212 21012KT P6SM BKN120
     FM211500 21017G25KT P6SM SCT080
     FM220200 18010KT P6SM OVC250=



000
FTUS43 KDDC 211100
TAFDDC
TAF
KDDC 211120Z 2112/2212 19013G20KT P6SM SKC
     FM211500 21020G30KT P6SM SCT080
     FM220200 18010KT P6SM OVC250=



000
FTUS43 KDDC 211100
TAFDDC
TAF
KDDC 211120Z 2112/2212 19013G20KT P6SM SKC
     FM211500 21020G30KT P6SM SCT080
     FM220200 18010KT P6SM OVC250=



000
FTUS43 KDDC 211100
TAFGCK
TAF
KGCK 211120Z 2112/2212 19013G20KT P6SM SKC
     FM211500 21020G30KT P6SM SCT080
     FM220200 18010KT P6SM OVC250=



000
FTUS43 KDDC 211100
TAFHYS
TAF
KHYS 211120Z 2112/2212 19013G20KT P6SM VCSH BKN100
     FM211400 21017G25KT P6SM SCT080
     FM220200 18010KT P6SM OVC250=



000
FTUS43 KDDC 211100
TAFGCK
TAF
KGCK 211120Z 2112/2212 19013G20KT P6SM SKC
     FM211500 21020G30KT P6SM SCT080
     FM220200 18010KT P6SM OVC250=



000
FTUS43 KDDC 211100
TAFHYS
TAF
KHYS 211120Z 2112/2212 19013G20KT P6SM VCSH BKN100
     FM211400 21017G25KT P6SM SCT080
     FM220200 18010KT P6SM OVC250=



000
FTUS43 KDDC 210500
TAFDDC
TAF
KDDC 210520Z 2106/2206 18012KT P6SM SKC
     FM211400 21017G24KT P6SM SKC=



000
FTUS43 KDDC 210500
TAFHYS
TAF
KHYS 210520Z 2106/2206 18012KT P6SM SKC
     FM211400 21015G22KT P6SM SKC=



000
FTUS43 KDDC 210500
TAFGCK
TAF
KGCK 210520Z 2106/2206 18011KT P6SM SKC
     FM211500 21015G22KT P6SM SKC=



000
FTUS43 KDDC 210500
TAFDDC
TAF
KDDC 210520Z 2106/2206 18012KT P6SM SKC
     FM211400 21017G24KT P6SM SKC=



000
FTUS43 KDDC 210500
TAFGCK
TAF
KGCK 210520Z 2106/2206 18011KT P6SM SKC
     FM211500 21015G22KT P6SM SKC=



000
FTUS43 KDDC 210500
TAFHYS
TAF
KHYS 210520Z 2106/2206 18012KT P6SM SKC
     FM211400 21015G22KT P6SM SKC=



000
FTUS43 KDDC 202300
TAFHYS
TAF
KHYS 202339Z 2100/2124 19020G29KT P6SM SKC
     FM210800 17012KT P6SM SCT150
     FM211400 21017G24KT P6SM SKC=



000
FTUS43 KDDC 202300
TAFHYS
TAF
KHYS 202339Z 2100/2124 19020G29KT P6SM SKC
     FM210800 17012KT P6SM SCT150
     FM211400 21017G24KT P6SM SKC=



000
FTUS43 KDDC 202300
TAFDDC
TAF
KDDC 202339Z 2100/2124 19016G21KT P6SM SKC
     FM210800 17014KT P6SM SCT150
     FM211400 21017G24KT P6SM SKC=



000
FTUS43 KDDC 202300
TAFGCK
TAF
KGCK 202339Z 2100/2124 17011G16KT P6SM SKC
     FM210600 17010KT P6SM SCT150
     FM211400 21017G24KT P6SM SKC=



000
FTUS43 KDDC 202300
TAFGCK
TAF
KGCK 202339Z 2100/2124 17011G16KT P6SM SKC
     FM210600 17010KT P6SM SCT150
     FM211400 21017G24KT P6SM SKC=



000
FTUS43 KDDC 202300
TAFDDC
TAF
KDDC 202339Z 2100/2124 19016G21KT P6SM SKC
     FM210800 17014KT P6SM SCT150
     FM211400 21017G24KT P6SM SKC=



000
FTUS43 KDDC 201900 AAA
TAFHYS
TAF AMD
KHYS 201959Z 2020/2118 19020G29KT P6SM SKC
     FM210200 17014KT P6SM SCT150=



000
FTUS43 KDDC 201800 AAA
TAFGCK
TAF AMD
KGCK 201801Z 2018/2118 17011G16KT P6SM SKC=



000
FTUS43 KDDC 201800 AAA
TAFGCK
TAF AMD
KGCK 201801Z 2018/2118 17011G16KT P6SM SKC=



000
FTUS43 KDDC 201700 AAA
TAFDDC
TAF AMD
KDDC 201720Z 2017/2112 19016G21KT P6SM SKC=



000
FTUS43 KDDC 201700 AAA
TAFDDC
TAF AMD
KDDC 201720Z 2017/2112 19016G21KT P6SM SKC=



000
FTUS43 KDDC 201600 AAB
TAFHYS
TAF AMD
KHYS 201619Z 2016/2112 19013G17KT P6SM SKC=



000
FTUS43 KDDC 201600 AAB
TAFHYS
TAF AMD
KHYS 201619Z 2016/2112 19013G17KT P6SM SKC=



000
FTUS43 KDDC 201500 AAA
TAFGCK
TAF AMD
KGCK 201503Z 2015/2112 21016G21KT P6SM SKC
     FM201800 18015G25KT P6SM FEW200=



000
FTUS43 KDDC 201500 AAA
TAFGCK
TAF AMD
KGCK 201503Z 2015/2112 21016G21KT P6SM SKC
     FM201800 18015G25KT P6SM FEW200=



000
FTUS43 KDDC 201400 AAA
TAFHYS
TAF AMD
KHYS 201441Z 2015/2112 21017G21KT P6SM SKC
     FM201600 18015G25KT P6SM FEW200=



000
FTUS43 KDDC 201100
TAFDDC
TAF
KDDC 201133Z 2012/2112 19010KT P6SM SCT250
     FM201500 18019G28KT P6SM SCT250=



000
FTUS43 KDDC 201100
TAFGCK
TAF
KGCK 201133Z 2012/2112 19010KT P6SM SCT250
     FM201500 18019G28KT P6SM SCT250=



000
FTUS43 KDDC 201100
TAFHYS
TAF
KHYS 201133Z 2012/2112 19010KT P6SM SCT250
     FM201500 18019G28KT P6SM SCT250=



000
FTUS43 KDDC 201100
TAFGCK
TAF
KGCK 201133Z 2012/2112 19010KT P6SM SCT250
     FM201500 18019G28KT P6SM SCT250=



000
FTUS43 KDDC 201100
TAFHYS
TAF
KHYS 201133Z 2012/2112 19010KT P6SM SCT250
     FM201500 18019G28KT P6SM SCT250=



000
FTUS43 KDDC 201100
TAFDDC
TAF
KDDC 201133Z 2012/2112 19010KT P6SM SCT250
     FM201500 18019G28KT P6SM SCT250=



000
FTUS43 KDDC 200500
TAFDDC
TAF
KDDC 200520Z 2006/2106 18012KT P6SM SKC
     FM201500 18014G22KT P6SM SCT250
     FM201800 18018G26KT P6SM BKN250=



000
FTUS43 KDDC 200500
TAFHYS
TAF
KHYS 200520Z 2006/2106 18012KT P6SM SKC
     FM201500 18014G22KT P6SM SCT250
     FM201800 18018G26KT P6SM BKN250=



000
FTUS43 KDDC 200500
TAFDDC
TAF
KDDC 200520Z 2006/2106 18012KT P6SM SKC
     FM201500 18014G22KT P6SM SCT250
     FM201800 18018G26KT P6SM BKN250=



000
FTUS43 KDDC 200500
TAFGCK
TAF
KGCK 200520Z 2006/2106 17010KT P6SM SKC
     FM201500 18014G22KT P6SM SCT250
     FM201800 18018G26KT P6SM BKN250=



000
FTUS43 KDDC 200500
TAFHYS
TAF
KHYS 200520Z 2006/2106 18012KT P6SM SKC
     FM201500 18014G22KT P6SM SCT250
     FM201800 18018G26KT P6SM BKN250=



000
FTUS43 KDDC 200500
TAFGCK
TAF
KGCK 200520Z 2006/2106 17010KT P6SM SKC
     FM201500 18014G22KT P6SM SCT250
     FM201800 18018G26KT P6SM BKN250=



000
FTUS43 KDDC 192300 RRA
TAFHYS
TAF
KHYS 192343Z 2000/2024 15014G18KT P6SM SCT200
     FM200200 16009KT P6SM SCT200
     FM201500 18016G22KT P6SM SKC
     FM201800 20020G27KT P6SM SKC=



000
FTUS43 KDDC 192300 RRA
TAFHYS
TAF
KHYS 192343Z 2000/2024 15014G18KT P6SM SCT200
     FM200200 16009KT P6SM SCT200
     FM201500 18016G22KT P6SM SKC
     FM201800 20020G27KT P6SM SKC=



000
FTUS43 KDDC 192300 RRA
TAFGCK
TAF
KGCK 192343Z 2000/2024 17014G20KT P6SM SCT200
     FM200300 16010KT P6SM BKN200
     FM201500 18013G20KT P6SM SKC
     FM201800 20019G26KT P6SM SKC=



000
FTUS43 KDDC 192300 RRA
TAFDDC
TAF
KDDC 192343Z 2000/2024 17016G22KT P6SM SCT250
     FM200300 16011KT P6SM FEW120 SCT200
     FM201500 18014G20KT P6SM SKC
     FM201800 18018G26KT P6SM SKC=



000
FTUS43 KDDC 192300 RRA
TAFDDC
TAF
KDDC 192343Z 2000/2024 17016G22KT P6SM SCT250
     FM200300 16011KT P6SM FEW120 SCT200
     FM201500 18014G20KT P6SM SKC
     FM201800 18018G26KT P6SM SKC=



000
FTUS43 KDDC 192000 AAB
TAFHYS
TAF AMD
KHYS 192009Z 1920/2018 15014G18KT P6SM SCT200
     FM200200 16009KT P6SM SCT200=



000
FTUS43 KDDC 192000 AAB
TAFHYS
TAF AMD
KHYS 192009Z 1920/2018 15014G18KT P6SM SCT200
     FM200200 16009KT P6SM SCT200=



000
FTUS43 KDDC 191900 AAA
TAFDDC
TAF AMD
KDDC 191958Z 1920/2018 17014G19KT P6SM SKC
     FM192300 17016G22KT P6SM SCT250
     FM200300 16011KT P6SM FEW120 SCT200=



000
FTUS43 KDDC 191900 AAA
TAFDDC
TAF AMD
KDDC 191958Z 1920/2018 17014G19KT P6SM SKC
     FM192300 17016G22KT P6SM SCT250
     FM200300 16011KT P6SM FEW120 SCT200=



000
FTUS43 KDDC 191900 AAA
TAFGCK
TAF AMD
KGCK 191958Z 1920/2018 18011KT P6SM SCT250
     FM192300 17014G20KT P6SM SCT200
     FM200300 16010KT P6SM BKN200=



000
FTUS43 KDDC 191900 AAA
TAFGCK
TAF AMD
KGCK 191958Z 1920/2018 18011KT P6SM SCT250
     FM192300 17014G20KT P6SM SCT200
     FM200300 16010KT P6SM BKN200=



000
FTUS43 KDDC 191800 AAA
TAFHYS
TAF AMD
KHYS 191841Z 1919/2018 15012KT P6SM FEW250
     FM192000 18014G22KT P6SM SCT250
     FM200200 16009KT P6SM SCT200=



000
FTUS43 KDDC 191800 AAA
TAFHYS
TAF AMD
KHYS 191841Z 1919/2018 15012KT P6SM FEW250
     FM192000 18014G22KT P6SM SCT250
     FM200200 16009KT P6SM SCT200=



000
FTUS43 KDDC 191700
TAFGCK
TAF
KGCK 191720Z 1918/2018 20014G21KT P6SM SCT200
     FM192300 17014G20KT P6SM SCT200
     FM200300 16010KT P6SM BKN200=



000
FTUS43 KDDC 191700
TAFHYS
TAF
KHYS 191720Z 1918/2018 21007KT P6SM FEW250
     FM192000 18014G22KT P6SM SCT250
     FM200200 16009KT P6SM SCT200=



000
FTUS43 KDDC 191700
TAFHYS
TAF
KHYS 191720Z 1918/2018 21007KT P6SM FEW250
     FM192000 18014G22KT P6SM SCT250
     FM200200 16009KT P6SM SCT200=



000
FTUS43 KDDC 191700
TAFGCK
TAF
KGCK 191720Z 1918/2018 20014G21KT P6SM SCT200
     FM192300 17014G20KT P6SM SCT200
     FM200300 16010KT P6SM BKN200=



000
FTUS43 KDDC 191700
TAFDDC
TAF
KDDC 191720Z 1918/2018 20014G21KT P6SM SCT250
     FM192300 17016G22KT P6SM SCT250
     FM200300 16011KT P6SM FEW120 SCT200=



000
FTUS43 KDDC 191700
TAFDDC
TAF
KDDC 191720Z 1918/2018 20014G21KT P6SM SCT250
     FM192300 17016G22KT P6SM SCT250
     FM200300 16011KT P6SM FEW120 SCT200=



000
FTUS43 KDDC 191100
TAFGCK
TAF
KGCK 191134Z 1912/2012 19008KT P6SM SCT120
     FM191500 20015G22KT P6SM SCT250
     FM192300 17013G19KT P6SM SCT250=



000
FTUS43 KDDC 191100
TAFHYS
TAF
KHYS 191134Z 1912/2012 14008KT P6SM SCT150
     FM191900 18014G22KT P6SM SCT250=



000
FTUS43 KDDC 191100
TAFDDC
TAF
KDDC 191134Z 1912/2012 19008KT P6SM SCT120
     FM191500 20015G22KT P6SM SCT250
     FM192300 17013G19KT P6SM SCT250=



000
FTUS43 KDDC 191100
TAFHYS
TAF
KHYS 191134Z 1912/2012 14008KT P6SM SCT150
     FM191900 18014G22KT P6SM SCT250=



000
FTUS43 KDDC 191100
TAFGCK
TAF
KGCK 191134Z 1912/2012 19008KT P6SM SCT120
     FM191500 20015G22KT P6SM SCT250
     FM192300 17013G19KT P6SM SCT250=



000
FTUS43 KDDC 191100
TAFDDC
TAF
KDDC 191134Z 1912/2012 19008KT P6SM SCT120
     FM191500 20015G22KT P6SM SCT250
     FM192300 17013G19KT P6SM SCT250=



000
FTUS43 KDDC 191000 AAA
TAFDDC
TAF AMD
KDDC 191020Z 1910/2006 16008KT P6SM VCTS BKN150CB
     FM191400 22010KT P6SM SCT250
     FM191900 18015G24KT P6SM SCT250=



000
FTUS43 KDDC 191000 AAA
TAFDDC
TAF AMD
KDDC 191020Z 1910/2006 16008KT P6SM VCTS BKN150CB
     FM191400 22010KT P6SM SCT250
     FM191900 18015G24KT P6SM SCT250=



000
FTUS43 KDDC 190700 AAA
TAFGCK
TAF AMD
KGCK 190703Z 1907/2006 VRB06KT P6SM SCT110
     FM191400 22010KT P6SM SCT250
     FM191900 17015G24KT P6SM SCT250=



000
FTUS43 KDDC 190700 AAA
TAFGCK
TAF AMD
KGCK 190703Z 1907/2006 VRB06KT P6SM SCT110
     FM191400 22010KT P6SM SCT250
     FM191900 17015G24KT P6SM SCT250=



000
FTUS43 KDDC 190600 AAA
TAFHYS
TAF AMD
KHYS 190632Z 1907/2006 VRB06KT P6SM BKN150
     FM191400 18005KT P6SM SCT250
     FM191900 18014G22KT P6SM SCT250=



000
FTUS43 KDDC 190600 AAA
TAFHYS
TAF AMD
KHYS 190632Z 1907/2006 VRB06KT P6SM BKN150
     FM191400 18005KT P6SM SCT250
     FM191900 18014G22KT P6SM SCT250=



000
FTUS43 KDDC 190500
TAFGCK
TAF
KGCK 190531Z 1906/2006 VRB06KT P6SM VCTS BKN150CB
     FM191400 22010KT P6SM SCT250
     FM191900 17015G24KT P6SM SCT250=



000
FTUS43 KDDC 190500
TAFDDC
TAF
KDDC 190531Z 1906/2006 VRB06KT P6SM VCTS BKN150CB
     FM191400 22010KT P6SM SCT250
     FM191900 18015G24KT P6SM SCT250=



000
FTUS43 KDDC 190500
TAFHYS
TAF
KHYS 190531Z 1906/2006 VRB06KT P6SM VCTS BKN150CB
     FM191400 18005KT P6SM SCT250
     FM191900 18014G22KT P6SM SCT250=



000
FTUS43 KDDC 190200 AAB
TAFDDC
TAF AMD
KDDC 190240Z 1903/1924 01026G33KT P6SM SCT060
     FM190400 22008KT P6SM SCT260
     FM191900 17013G20KT P6SM SCT250=



000
FTUS43 KDDC 190200 AAB
TAFDDC
TAF AMD
KDDC 190240Z 1903/1924 01026G33KT P6SM SCT060
     FM190400 22008KT P6SM SCT260
     FM191900 17013G20KT P6SM SCT250=



000
FTUS43 KDDC 190200 AAB
TAFGCK
TAF AMD
KGCK 190218Z 1902/1924 16005KT P6SM SCT250
     FM190245 01015G25KT P6SM SCT060
     FM190400 22008KT P6SM SCT250
     FM191900 17013G20KT P6SM SCT250=



000
FTUS43 KDDC 190200 AAB
TAFGCK
TAF AMD
KGCK 190218Z 1902/1924 16005KT P6SM SCT250
     FM190245 01015G25KT P6SM SCT060
     FM190400 22008KT P6SM SCT250
     FM191900 17013G20KT P6SM SCT250=



000
FTUS43 KDDC 190100 AAA
TAFGCK
TAF AMD
KGCK 190108Z 1901/1924 20009KT P6SM SCT120 BKN250
     FM191900 17013G20KT P6SM SCT250=



000
FTUS43 KDDC 190100 AAA
TAFGCK
TAF AMD
KGCK 190108Z 1901/1924 20009KT P6SM SCT120 BKN250
     FM191900 17013G20KT P6SM SCT250=



000
FTUS43 KDDC 190100 AAA
TAFDDC
TAF AMD
KDDC 190108Z 1901/1924 20007KT P6SM SCT120 BKN250
     FM191900 17013G20KT P6SM SCT250=



000
FTUS43 KDDC 190100 AAA
TAFDDC
TAF AMD
KDDC 190108Z 1901/1924 20007KT P6SM SCT120 BKN250
     FM191900 17013G20KT P6SM SCT250=



000
FTUS43 KDDC 182300
TAFDDC
TAF
KDDC 182322Z 1900/1924 19010KT P6SM VCTS SCT080CB BKN150
     FM190200 22009KT P6SM SCT120 BKN250
     FM191900 17013G20KT P6SM SCT250=



000
FTUS43 KDDC 182300
TAFHYS
TAF
KHYS 182322Z 1900/1924 05009KT P6SM BKN250
     FM190400 VRB06KT P6SM VCTS SCT080CB BKN150
     FM190800 VRB06KT P6SM BKN250
     FM192200 17013G20KT P6SM SCT250=



000
FTUS43 KDDC 182300
TAFGCK
TAF
KGCK 182322Z 1900/1924 21012KT P6SM VCTS SCT080CB BKN150
     FM190200 22009KT P6SM SCT120 BKN250
     FM191900 17013G20KT P6SM SCT250=



000
FTUS43 KDDC 182300
TAFHYS
TAF
KHYS 182322Z 1900/1924 05009KT P6SM BKN250
     FM190400 VRB06KT P6SM VCTS SCT080CB BKN150
     FM190800 VRB06KT P6SM BKN250
     FM192200 17013G20KT P6SM SCT250=



000
FTUS43 KDDC 182300
TAFGCK
TAF
KGCK 182322Z 1900/1924 21012KT P6SM VCTS SCT080CB BKN150
     FM190200 22009KT P6SM SCT120 BKN250
     FM191900 17013G20KT P6SM SCT250=



000
FTUS43 KDDC 182300
TAFDDC
TAF
KDDC 182322Z 1900/1924 19010KT P6SM VCTS SCT080CB BKN150
     FM190200 22009KT P6SM SCT120 BKN250
     FM191900 17013G20KT P6SM SCT250=



000
FTUS43 KDDC 182200 AAA
TAFDDC
TAF AMD
KDDC 182219Z 1822/1918 21010KT P6SM VCTS BKN100CB
     FM190100 19010KT P6SM SCT120 BKN250=



000
FTUS43 KDDC 182200 AAA
TAFDDC
TAF AMD
KDDC 182219Z 1822/1918 21010KT P6SM VCTS BKN100CB
     FM190100 19010KT P6SM SCT120 BKN250=



000
FTUS43 KDDC 182200 AAC
TAFGCK
TAF AMD
KGCK 182218Z 1822/1918 22009KT P6SM VCTS BKN100CB
     FM190300 20010KT P6SM FEW120 BKN250=



000
FTUS43 KDDC 182200 AAC
TAFGCK
TAF AMD
KGCK 182218Z 1822/1918 22009KT P6SM VCTS BKN100CB
     FM190300 20010KT P6SM FEW120 BKN250=



    US Dept of Commerce
    National Oceanic and Atmospheric Administration
    National Weather Service
    1325 East West Highway
    Silver Spring, MD 20910
    Page Author: NWS Internet Services Team
Disclaimer
Information Quality
Credits
Glossary
Privacy Policy
Freedom of Information Act (FOIA)
About Us
Career Opportunities